createdAt,value
2022-09-28T00:01:14.742Z,64.08
2022-09-28T00:03:42.849Z,64.34
2022-09-28T00:06:13.360Z,63.94
2022-09-28T00:08:41.662Z,63.92
2022-09-28T00:11:13.755Z,64.04
2022-09-28T00:13:42.926Z,63.90
2022-09-28T00:16:15.725Z,64.10
2022-09-28T00:18:45.636Z,64.29
2022-09-28T00:21:17.255Z,64.80
2022-09-28T00:23:59.761Z,64.58
2022-09-28T00:26:30.893Z,63.97
2022-09-28T00:29:01.031Z,63.77
2022-09-28T00:31:33.538Z,63.78
2022-09-28T00:34:05.335Z,64.40
2022-09-28T00:36:35.000Z,64.80
2022-09-28T00:39:06.275Z,64.62
2022-09-28T00:41:35.297Z,64.49
2022-09-28T00:44:36.133Z,64.75
2022-09-28T00:47:14.797Z,64.67
2022-09-28T00:49:48.909Z,64.35
2022-09-28T00:52:20.771Z,64.86
2022-09-28T00:54:50.027Z,64.83
2022-09-28T00:57:18.167Z,64.16
2022-09-28T00:59:46.256Z,64.05
2022-09-28T01:02:16.049Z,64.17
2022-09-28T01:04:44.178Z,64.63
2022-09-28T01:07:13.572Z,64.53
2022-09-28T01:09:41.914Z,64.20
2022-09-28T01:12:10.120Z,64.30
2022-09-28T01:14:38.854Z,65.12
2022-09-28T01:17:12.337Z,64.99
2022-09-28T01:20:13.470Z,64.94
2022-09-28T01:23:32.232Z,64.52
2022-09-28T01:26:33.430Z,64.79
2022-09-28T01:29:07.194Z,64.29
2022-09-28T01:31:38.563Z,64.85
2022-09-28T01:34:14.260Z,64.87
2022-09-28T01:36:46.977Z,64.82
2022-09-28T01:39:21.195Z,64.52
2022-09-28T01:41:53.516Z,64.64
2022-09-28T01:44:24.175Z,64.79
2022-09-28T01:46:54.854Z,65.24
2022-09-28T01:49:31.358Z,65.52
2022-09-28T01:52:06.953Z,65.72
2022-09-28T01:54:41.858Z,65.28
2022-09-28T01:57:17.244Z,65.21
2022-09-28T01:59:51.732Z,64.74
2022-09-28T02:02:26.466Z,65.16
2022-09-28T02:04:59.048Z,64.53
2022-09-28T02:07:34.140Z,64.44
2022-09-28T02:10:09.626Z,64.83
2022-09-28T02:12:42.829Z,64.53
2022-09-28T02:15:15.945Z,64.59
2022-09-28T02:17:46.217Z,64.90
2022-09-28T02:20:17.626Z,64.77
2022-09-28T02:22:49.652Z,64.72
2022-09-28T02:25:25.299Z,64.39
2022-09-28T02:28:01.247Z,65.11
2022-09-28T02:30:32.677Z,64.97
2022-09-28T02:33:05.500Z,65.00
2022-09-28T02:35:35.404Z,64.26
2022-09-28T02:38:05.325Z,65.33
2022-09-28T02:40:38.229Z,64.32
2022-09-28T02:43:17.265Z,64.55
2022-09-28T02:46:06.819Z,65.20
2022-09-28T02:49:30.395Z,65.44
2022-09-28T02:52:20.333Z,65.86
2022-09-28T02:55:04.815Z,65.52
2022-09-28T02:57:48.195Z,65.46
2022-09-28T03:00:20.908Z,65.47
2022-09-28T03:03:04.058Z,65.77
2022-09-28T03:05:41.691Z,65.28
2022-09-28T03:08:19.227Z,65.27
2022-09-28T03:10:52.935Z,65.54
2022-09-28T03:13:21.502Z,65.45
2022-09-28T03:15:50.823Z,65.16
2022-09-28T03:18:19.483Z,65.59
2022-09-28T03:20:49.674Z,65.67
2022-09-28T03:23:24.704Z,65.50
2022-09-28T03:25:53.674Z,64.74
2022-09-28T03:28:22.050Z,64.65
2022-09-28T03:30:51.725Z,65.19
2022-09-28T03:33:20.311Z,65.34
2022-09-28T03:35:49.547Z,65.39
2022-09-28T03:38:18.286Z,65.33
2022-09-28T03:40:53.946Z,65.23
2022-09-28T03:43:22.132Z,64.88
2022-09-28T03:45:55.875Z,65.01
2022-09-28T03:48:29.893Z,64.46
2022-09-28T03:51:01.636Z,64.67
2022-09-28T03:53:30.661Z,64.76
2022-09-28T03:56:05.206Z,65.14
2022-09-28T03:58:34.879Z,65.23
2022-09-28T04:01:07.246Z,65.72
2022-09-28T04:03:35.514Z,65.26
2022-09-28T04:06:04.034Z,65.87
2022-09-28T04:08:32.635Z,65.61
2022-09-28T04:11:01.392Z,65.96
2022-09-28T04:13:32.415Z,65.63
2022-09-28T04:16:03.030Z,66.38
2022-09-28T04:18:36.320Z,65.94
2022-09-28T04:21:38.215Z,65.62
2022-09-28T04:24:11.814Z,65.09
2022-09-28T04:26:40.114Z,65.32
2022-09-28T04:29:18.645Z,65.50
2022-09-28T04:31:55.923Z,65.98
2022-09-28T04:34:51.933Z,66.30
2022-09-28T04:37:20.393Z,65.88
2022-09-28T04:39:48.757Z,65.25
2022-09-28T04:42:19.662Z,65.48
2022-09-28T04:44:49.952Z,65.65
2022-09-28T04:47:18.208Z,65.80
2022-09-28T04:50:12.757Z,65.64
2022-09-28T04:53:03.124Z,66.01
2022-09-28T04:55:32.742Z,65.23
2022-09-28T04:58:03.305Z,64.94
2022-09-28T05:00:34.717Z,64.51
2022-09-28T05:03:19.356Z,65.01
2022-09-28T05:06:18.268Z,65.07
2022-09-28T05:08:48.316Z,65.50
2022-09-28T05:11:17.482Z,65.79
2022-09-28T05:13:47.157Z,66.46
2022-09-28T05:16:17.823Z,65.67
2022-09-28T05:19:06.327Z,65.39
2022-09-28T05:21:35.958Z,65.15
2022-09-28T05:24:07.734Z,65.41
2022-09-28T05:26:38.023Z,65.60
2022-09-28T05:29:07.741Z,65.59
2022-09-28T05:32:11.148Z,66.06
2022-09-28T05:34:50.696Z,66.29
2022-09-28T05:37:26.822Z,65.81
2022-09-28T05:39:54.841Z,65.38
2022-09-28T05:42:23.169Z,65.88
2022-09-28T05:44:51.341Z,65.35
2022-09-28T05:47:19.318Z,65.38
2022-09-28T05:49:47.398Z,65.34
2022-09-28T05:52:15.377Z,64.94
2022-09-28T05:54:44.788Z,64.70
2022-09-28T05:57:13.372Z,64.67
2022-09-28T05:59:41.561Z,64.56
2022-09-28T06:02:12.109Z,64.61
2022-09-28T06:04:40.284Z,65.24
2022-09-28T06:07:09.078Z,64.90
2022-09-28T06:09:37.514Z,64.82
2022-09-28T06:12:12.895Z,64.86
2022-09-28T06:14:46.738Z,64.35
2022-09-28T06:17:15.182Z,64.82
2022-09-28T06:19:46.468Z,65.22
2022-09-28T06:22:31.476Z,65.41
2022-09-28T06:25:08.090Z,65.24
2022-09-28T06:27:37.860Z,65.60
2022-09-28T06:30:07.424Z,65.58
2022-09-28T06:32:35.736Z,65.98
2022-09-28T06:35:05.548Z,65.87
2022-09-28T06:37:34.177Z,65.96
2022-09-28T06:40:05.106Z,65.64
2022-09-28T06:42:33.638Z,66.31
2022-09-28T06:45:27.166Z,66.82
2022-09-28T06:48:23.935Z,66.49
2022-09-28T06:50:52.996Z,67.56
2022-09-28T06:53:30.514Z,68.26
2022-09-28T06:56:03.892Z,68.31
2022-09-28T06:58:32.299Z,68.33
2022-09-28T07:01:03.876Z,67.78
2022-09-28T07:03:41.708Z,68.08
2022-09-28T07:06:26.712Z,68.35
2022-09-28T07:09:26.533Z,68.82
2022-09-28T07:12:13.562Z,69.48
2022-09-28T07:14:56.215Z,69.32
2022-09-28T07:17:26.832Z,68.90
2022-09-28T07:20:00.966Z,69.11
2022-09-28T07:22:42.885Z,68.87
2022-09-28T07:25:15.380Z,68.69
2022-09-28T07:27:43.308Z,68.38
2022-09-28T07:30:34.488Z,68.46
2022-09-28T07:33:42.469Z,68.16
2022-09-28T07:36:22.895Z,68.08
2022-09-28T07:38:52.590Z,68.47
2022-09-28T07:41:32.170Z,67.99
2022-09-28T07:44:05.998Z,68.15
2022-09-28T07:46:36.942Z,68.20
2022-09-28T07:49:26.746Z,68.04
2022-09-28T07:52:32.006Z,68.64
2022-09-28T07:55:26.030Z,68.73
2022-09-28T07:58:24.053Z,69.44
2022-09-28T08:01:07.738Z,70.09
2022-09-28T08:03:45.186Z,70.24
2022-09-28T08:06:17.205Z,70.00
2022-09-28T08:08:46.083Z,70.17
2022-09-28T08:11:19.377Z,70.44
2022-09-28T08:14:19.528Z,70.84
2022-09-28T08:17:01.163Z,70.63
2022-09-28T08:20:03.876Z,70.33
2022-09-28T08:22:34.940Z,70.57
2022-09-28T08:25:04.044Z,70.37
2022-09-28T08:27:32.189Z,70.28
2022-09-28T08:30:00.244Z,70.32
2022-09-28T08:33:07.569Z,70.62
2022-09-28T08:35:44.740Z,70.05
2022-09-28T08:38:32.752Z,70.48
2022-09-28T08:41:34.040Z,70.70
2022-09-28T08:44:24.162Z,70.91
2022-09-28T08:47:54.692Z,70.87
2022-09-28T08:50:34.328Z,70.82
2022-09-28T08:53:38.110Z,71.20
2022-09-28T08:56:26.966Z,71.38
2022-09-28T08:59:01.070Z,71.44
2022-09-28T09:01:36.566Z,71.21
2022-09-28T09:04:10.165Z,71.15
2022-09-28T09:07:40.146Z,71.45
2022-09-28T09:10:30.174Z,70.51
2022-09-28T09:13:07.724Z,70.60
2022-09-28T09:15:47.224Z,70.70
2022-09-28T09:18:37.209Z,70.24
2022-09-28T09:21:39.908Z,69.76
2022-09-28T09:24:25.086Z,69.61
2022-09-28T09:27:07.071Z,69.23
2022-09-28T09:29:52.581Z,68.33
2022-09-28T09:32:35.758Z,67.63
2022-09-28T09:35:28.071Z,67.55
2022-09-28T09:38:24.594Z,66.85
2022-09-28T09:41:37.461Z,66.67
2022-09-28T09:44:40.851Z,65.99
2022-09-28T09:47:32.278Z,66.19
2022-09-28T09:50:13.588Z,65.56
2022-09-28T09:52:49.199Z,64.54
2022-09-28T09:55:29.931Z,63.99
2022-09-28T09:58:22.736Z,64.49
2022-09-28T10:01:15.776Z,64.21
2022-09-28T10:04:20.378Z,63.74
2022-09-28T10:06:51.671Z,63.03
2022-09-28T10:09:25.435Z,60.67
2022-09-28T10:11:54.514Z,61.22
2022-09-28T10:14:24.779Z,61.29
2022-09-28T10:17:05.597Z,60.98
2022-09-28T10:19:56.956Z,59.71
2022-09-28T10:22:28.576Z,58.90
2022-09-28T10:25:00.838Z,58.88
2022-09-28T10:27:32.976Z,59.17
2022-09-28T10:30:05.672Z,58.68
2022-09-28T10:32:40.945Z,58.41
2022-09-28T10:35:15.586Z,59.41
2022-09-28T10:37:50.314Z,59.94
2022-09-28T10:40:44.518Z,59.17
2022-09-28T10:43:24.972Z,58.02
2022-09-28T10:46:06.982Z,59.19
2022-09-28T10:48:50.060Z,58.61
2022-09-28T10:51:18.938Z,58.07
2022-09-28T10:54:01.347Z,57.56
2022-09-28T10:56:44.692Z,57.77
2022-09-28T10:59:32.453Z,57.35
2022-09-28T11:02:24.494Z,57.49
2022-09-28T11:04:58.953Z,57.35
2022-09-28T11:07:33.052Z,57.09
2022-09-28T11:10:04.409Z,56.52
2022-09-28T11:12:43.186Z,56.60
2022-09-28T11:15:19.266Z,57.25
2022-09-28T11:17:48.888Z,57.71
2022-09-28T11:20:44.249Z,58.09
2022-09-28T11:23:20.651Z,57.65
2022-09-28T11:25:59.716Z,57.28
2022-09-28T11:28:32.883Z,57.49
2022-09-28T11:31:04.610Z,57.42
2022-09-28T11:33:38.942Z,56.75
2022-09-28T11:36:49.922Z,56.61
2022-09-28T11:39:29.843Z,56.54
2022-09-28T11:42:17.132Z,56.46
2022-09-28T11:44:49.162Z,55.50
2022-09-28T11:47:44.521Z,55.72
2022-09-28T11:50:24.284Z,55.46
2022-09-28T11:53:03.171Z,55.84
2022-09-28T11:55:37.157Z,56.18
2022-09-28T11:58:12.858Z,57.23
2022-09-28T12:00:47.452Z,57.49
2022-09-28T12:03:19.747Z,58.05
2022-09-28T12:05:52.939Z,58.02
2022-09-28T12:08:27.548Z,58.47
2022-09-28T12:11:26.471Z,58.96
2022-09-28T12:14:21.341Z,57.80
2022-09-28T12:17:07.111Z,58.48
2022-09-28T12:19:43.504Z,58.43
2022-09-28T12:22:18.301Z,58.33
2022-09-28T12:24:51.106Z,57.55
2022-09-28T12:27:28.019Z,56.46
2022-09-28T12:30:05.305Z,55.71
2022-09-28T12:32:39.220Z,53.79
2022-09-28T12:35:14.353Z,53.50
2022-09-28T12:38:08.923Z,52.78
2022-09-28T12:40:48.462Z,52.14
2022-09-28T12:43:40.620Z,52.61
2022-09-28T12:46:28.836Z,53.25
2022-09-28T12:52:29.139Z,55.17
2022-09-28T12:55:18.480Z,55.56
2022-09-28T12:58:04.892Z,56.44
2022-09-28T13:00:45.932Z,56.98
2022-09-28T13:03:42.581Z,56.98
2022-09-28T13:06:35.246Z,57.28
2022-09-28T13:09:22.376Z,57.66
2022-09-28T13:12:16.729Z,58.17
2022-09-28T13:15:19.249Z,58.60
2022-09-28T13:18:02.736Z,58.92
2022-09-28T13:20:52.419Z,59.46
2022-09-28T13:23:23.616Z,59.18
2022-09-28T13:25:56.196Z,57.89
2022-09-28T13:28:28.314Z,57.35
2022-09-28T13:31:01.792Z,57.01
2022-09-28T13:33:42.068Z,55.92
2022-09-28T13:36:38.628Z,55.52
2022-09-28T13:39:52.086Z,54.73
2022-09-28T13:42:52.612Z,50.95
2022-09-28T13:45:54.191Z,50.86
2022-09-28T13:48:35.601Z,52.05
2022-09-28T13:51:24.777Z,51.43
2022-09-28T13:54:11.906Z,51.10
2022-09-28T13:56:50.638Z,50.87
2022-09-28T13:59:24.465Z,48.45
2022-09-28T14:01:58.552Z,47.48
2022-09-28T14:04:57.212Z,45.92
2022-09-28T14:10:19.087Z,45.86
2022-09-28T14:12:49.868Z,47.17
2022-09-28T14:15:41.289Z,46.54
2022-09-28T14:18:27.918Z,47.18
2022-09-28T14:21:17.560Z,47.82
2022-09-28T14:24:09.700Z,48.39
2022-09-28T14:26:58.494Z,49.36
2022-09-28T14:29:29.319Z,48.69
2022-09-28T14:31:59.190Z,48.85
2022-09-28T14:34:34.551Z,47.91
2022-09-28T14:37:24.292Z,48.03
2022-09-28T14:40:10.147Z,49.41
2022-09-28T14:42:38.666Z,50.23
2022-09-28T14:45:36.349Z,50.05
2022-09-28T14:48:20.484Z,49.25
2022-09-28T14:50:50.418Z,47.75
2022-09-28T14:53:23.885Z,48.13
2022-09-28T14:55:52.643Z,48.23
2022-09-28T14:58:23.909Z,48.48
2022-09-28T15:01:06.515Z,48.63
2022-09-28T15:03:36.554Z,48.42
2022-09-28T15:06:05.061Z,47.89
2022-09-28T15:08:41.216Z,46.26
2022-09-28T15:11:16.653Z,47.42
2022-09-28T15:13:44.770Z,46.87
2022-09-28T15:16:15.341Z,47.26
2022-09-28T15:19:04.867Z,46.86
2022-09-28T15:21:36.454Z,46.83
2022-09-28T15:24:25.862Z,47.14
2022-09-28T15:26:54.233Z,47.48
2022-09-28T15:29:23.916Z,47.69
2022-09-28T15:31:54.475Z,47.95
2022-09-28T15:34:48.275Z,49.26
2022-09-28T15:37:20.161Z,49.97
2022-09-28T15:39:51.054Z,50.47
2022-09-28T15:42:20.434Z,51.43
2022-09-28T15:45:08.676Z,51.80
2022-09-28T15:47:38.767Z,50.52
2022-09-28T15:50:09.665Z,50.66
2022-09-28T15:52:40.676Z,51.06
2022-09-28T15:55:22.343Z,52.22
2022-09-28T15:58:07.597Z,52.21
2022-09-28T16:00:36.859Z,51.87
2022-09-28T16:03:21.940Z,51.45
2022-09-28T16:05:52.470Z,50.67
2022-09-28T16:08:25.676Z,50.73
2022-09-28T16:10:59.125Z,51.16
2022-09-28T16:13:27.943Z,51.99
2022-09-28T16:16:00.026Z,51.47
2022-09-28T16:18:30.513Z,51.48
2022-09-28T16:21:32.292Z,51.80
2022-09-28T16:24:00.255Z,51.69
2022-09-28T16:26:33.446Z,52.28
2022-09-28T16:29:06.983Z,51.58
2022-09-28T16:31:35.044Z,51.92
2022-09-28T16:34:17.944Z,52.03
2022-09-28T16:36:47.746Z,52.93
2022-09-28T16:39:17.419Z,53.34
2022-09-28T16:41:49.536Z,53.21
2022-09-28T16:44:24.477Z,53.21
2022-09-28T16:46:55.122Z,53.19
2022-09-28T16:49:25.473Z,53.62
2022-09-28T16:51:53.750Z,53.39
2022-09-28T16:54:40.896Z,53.29
2022-09-28T16:57:12.713Z,54.11
2022-09-28T16:59:40.875Z,54.20
2022-09-28T17:02:45.105Z,54.54
2022-09-28T17:05:10.236Z,54.71
2022-09-28T17:07:38.260Z,55.56
2022-09-28T17:10:16.795Z,55.76
2022-09-28T17:12:46.808Z,55.90
2022-09-28T17:15:15.825Z,55.96
2022-09-28T17:17:43.779Z,57.10
2022-09-28T17:20:21.456Z,56.75
2022-09-28T17:22:49.948Z,56.81
2022-09-28T17:25:18.436Z,56.61
2022-09-28T17:27:49.757Z,57.18
2022-09-28T17:30:22.326Z,56.66
2022-09-28T17:32:53.754Z,57.16
2022-09-28T17:35:24.655Z,57.56
2022-09-28T17:37:53.565Z,57.18
2022-09-28T17:40:23.869Z,57.31
2022-09-28T17:42:55.225Z,57.59
2022-09-28T17:45:24.240Z,57.56
2022-09-28T17:47:52.440Z,57.57
2022-09-28T17:50:23.990Z,57.62
2022-09-28T17:52:55.949Z,58.28
2022-09-28T17:55:28.556Z,58.33
2022-09-28T17:57:58.199Z,58.00
2022-09-28T18:00:28.059Z,58.69
2022-09-28T18:02:57.128Z,59.07
2022-09-28T18:05:27.824Z,58.51
2022-09-28T18:07:58.738Z,58.39
2022-09-28T18:10:27.532Z,58.88
2022-09-28T18:12:56.940Z,58.49
2022-09-28T18:15:25.164Z,58.34
2022-09-28T18:17:53.489Z,58.83
2022-09-28T18:20:21.724Z,58.93
2022-09-28T18:22:50.019Z,59.48
2022-09-28T18:25:18.208Z,58.52
2022-09-28T18:27:46.290Z,58.90
2022-09-28T18:30:15.900Z,59.76
2022-09-28T18:32:43.923Z,59.09
2022-09-28T18:35:12.126Z,59.42
2022-09-28T18:37:43.597Z,59.86
2022-09-28T18:40:13.878Z,59.97
2022-09-28T18:42:42.659Z,59.76
2022-09-28T18:45:11.970Z,59.92
2022-09-28T18:47:42.936Z,59.56
2022-09-28T18:50:12.968Z,59.73
2022-09-28T18:52:41.247Z,59.68
2022-09-28T18:55:10.317Z,59.42
2022-09-28T18:57:40.493Z,59.67
2022-09-28T19:00:11.511Z,59.97
2022-09-28T19:02:41.331Z,59.82
2022-09-28T19:05:09.849Z,59.94
2022-09-28T19:07:37.910Z,59.80
2022-09-28T19:10:06.919Z,59.70
2022-09-28T19:12:34.847Z,59.70
2022-09-28T19:15:02.744Z,59.15
2022-09-28T19:17:30.966Z,59.14
2022-09-28T19:20:00.486Z,59.19
2022-09-28T19:22:28.936Z,59.71
2022-09-28T19:24:57.075Z,60.15
2022-09-28T19:27:25.842Z,60.11
2022-09-28T19:29:53.763Z,59.82
2022-09-28T19:32:21.867Z,59.92
2022-09-28T19:34:50.005Z,60.05
2022-09-28T19:37:19.339Z,59.77
2022-09-28T19:39:47.196Z,59.51
2022-09-28T19:42:15.238Z,59.74
2022-09-28T19:44:43.924Z,59.90
2022-09-28T19:47:13.041Z,60.09
2022-09-28T19:49:41.650Z,60.00
2022-09-28T19:52:15.865Z,60.10
2022-09-28T19:54:54.410Z,60.14
2022-09-28T19:57:24.644Z,59.79
2022-09-28T19:59:57.832Z,59.74
2022-09-28T20:02:29.736Z,59.66
2022-09-28T20:04:58.174Z,60.30
2022-09-28T20:07:26.587Z,59.95
2022-09-28T20:09:55.916Z,60.10
2022-09-28T20:12:24.262Z,60.07
2022-09-28T20:14:52.352Z,59.90
2022-09-28T20:17:21.984Z,59.87
2022-09-28T20:19:51.683Z,60.28
2022-09-28T20:22:20.065Z,60.13
2022-09-28T20:24:48.470Z,60.01
2022-09-28T20:27:18.145Z,60.12
2022-09-28T20:29:46.447Z,59.85
2022-09-28T20:32:14.498Z,59.90
2022-09-28T20:34:42.735Z,59.82
2022-09-28T20:37:12.488Z,59.65
2022-09-28T20:39:44.808Z,59.95
2022-09-28T20:42:15.663Z,59.72
2022-09-28T20:44:45.176Z,60.29
2022-09-28T20:47:13.115Z,60.06
2022-09-28T20:49:41.663Z,60.02
2022-09-28T20:52:09.778Z,60.07
2022-09-28T20:54:38.060Z,60.06
2022-09-28T20:57:17.257Z,59.92
2022-09-28T20:59:50.867Z,59.52
2022-09-28T21:02:21.769Z,60.04
2022-09-28T21:04:49.689Z,59.75
2022-09-28T21:07:18.335Z,59.66
2022-09-28T21:09:47.216Z,59.67
2022-09-28T21:12:21.062Z,60.14
2022-09-28T21:14:53.917Z,59.95
2022-09-28T21:17:23.194Z,59.82
2022-09-28T21:19:52.809Z,59.79
2022-09-28T21:22:25.681Z,59.53
2022-09-28T21:24:57.656Z,60.30
2022-09-28T21:27:39.112Z,60.32
2022-09-28T21:30:33.392Z,60.26
2022-09-28T21:33:04.461Z,60.30
2022-09-28T21:35:38.491Z,60.30
2022-09-28T21:38:16.992Z,59.95
2022-09-28T21:40:50.541Z,59.98
2022-09-28T21:47:43.666Z,59.98
2022-09-28T21:50:29.026Z,59.76
2022-09-28T21:53:04.066Z,59.79
2022-09-28T21:55:37.881Z,60.31
2022-09-28T22:02:42.468Z,59.63
2022-09-28T22:05:13.611Z,59.69
2022-09-28T22:07:44.115Z,59.80
2022-09-28T22:10:17.929Z,59.65
2022-09-28T22:12:48.938Z,59.29
2022-09-28T22:15:26.686Z,59.46
2022-09-28T22:18:00.603Z,59.91
2022-09-28T22:27:58.778Z,59.75
2022-09-28T22:30:35.288Z,59.82
2022-09-28T22:33:32.252Z,59.52
2022-09-28T22:36:08.375Z,59.12
2022-09-28T22:38:45.730Z,60.56
2022-09-28T22:41:19.157Z,60.27
2022-09-28T22:43:48.546Z,59.76
2022-09-28T22:46:21.274Z,60.14
2022-09-28T22:48:55.927Z,60.13
2022-09-28T22:51:32.171Z,60.08
2022-09-28T22:54:11.793Z,60.24
2022-09-28T23:01:34.923Z,60.25
2022-09-28T23:04:10.294Z,60.41
2022-09-28T23:06:43.539Z,59.96
2022-09-28T23:09:13.812Z,59.61
2022-09-28T23:11:43.170Z,59.58
2022-09-28T23:14:13.764Z,59.89
2022-09-28T23:21:31.594Z,59.76
2022-09-28T23:24:02.659Z,59.88
2022-09-28T23:26:34.503Z,59.89
2022-09-28T23:29:04.594Z,59.54
2022-09-28T23:31:35.084Z,59.94
2022-09-28T23:34:07.255Z,59.82
2022-09-28T23:36:37.821Z,59.99
2022-09-28T23:39:08.379Z,60.36
2022-09-28T23:41:37.871Z,60.60
2022-09-28T23:44:09.472Z,60.49
2022-09-28T23:46:40.208Z,60.22
2022-09-28T23:52:45.940Z,61.01
2022-09-28T23:55:19.213Z,60.90
2022-09-28T23:57:50.098Z,60.79
